Time;durP1;ratioP1;P1;durP2;ratioP2;P2;SDS_P1;SDS_P2;PMS_P1;PMS_P2;Temp;Humidity;BMP_temperature;BMP_pressure;BME280_temperature;BME280_humidity;BME280_pressure;Samples;Min_cycle;Max_cycle;Signal;HPM_P1;HPM_P2
2024/03/13 00:01:16;;;;;;;29.77;14.27;;;;;;;5.85;100.00;100667.38;5120396;28;20042;-73
2024/03/13 00:03:47;;;;;;;35.63;15.40;;;;;;;5.86;100.00;100671.69;5124252;28;20545;-74
2024/03/13 00:06:17;;;;;;;33.38;15.73;;;;;;;5.84;100.00;100676.03;5123565;28;20031;-73
2024/03/13 00:08:48;;;;;;;33.05;14.90;;;;;;;5.76;100.00;100672.69;5120477;28;20037;-74
2024/03/13 00:11:19;;;;;;;33.25;14.77;;;;;;;5.80;100.00;100675.25;5118965;28;20041;-73
2024/03/13 00:13:50;;;;;;;32.40;15.25;;;;;;;5.67;100.00;100678.00;5121647;28;20130;-73
2024/03/13 00:16:21;;;;;;;30.88;15.43;;;;;;;5.69;100.00;100671.03;5121318;28;20504;-72
2024/03/13 00:18:51;;;;;;;35.35;15.40;;;;;;;5.75;100.00;100678.75;5121293;28;20314;-73
2024/03/13 00:21:22;;;;;;;36.88;16.33;;;;;;;5.76;100.00;100675.28;5122980;28;20031;-74
2024/03/13 00:23:52;;;;;;;32.63;14.65;;;;;;;5.65;100.00;100679.75;5121482;28;20162;-73
2024/03/13 00:26:24;;;;;;;35.80;16.08;;;;;;;5.71;100.00;100677.09;5118323;28;20084;-71
2024/03/13 00:28:55;;;;;;;38.97;16.38;;;;;;;5.63;100.00;100676.31;5116332;28;20043;-73
2024/03/13 00:31:27;;;;;;;37.35;15.95;;;;;;;5.65;100.00;100674.56;5117663;28;20053;-73
2024/03/13 00:33:57;;;;;;;34.45;15.20;;;;;;;5.63;100.00;100666.84;5118537;28;20039;-73
2024/03/13 00:36:28;;;;;;;34.35;15.30;;;;;;;5.63;100.00;100665.97;5123781;28;20027;-74
2024/03/13 00:38:58;;;;;;;35.17;15.02;;;;;;;5.67;100.00;100667.63;5124208;28;20029;-73
2024/03/13 00:41:28;;;;;;;34.53;15.07;;;;;;;5.61;100.00;100659.94;5123247;28;20553;-74
2024/03/13 00:43:59;;;;;;;31.95;14.40;;;;;;;5.48;100.00;100663.56;5121720;28;20027;-70
2024/03/13 00:46:29;;;;;;;32.25;14.77;;;;;;;5.41;100.00;100669.75;5124746;28;20137;-74
2024/03/13 00:49:02;;;;;;;29.00;14.00;;;;;;;5.39;100.00;100677.50;5122213;28;20475;-72
2024/03/13 00:51:32;;;;;;;32.38;13.88;;;;;;;5.31;100.00;100673.31;5123972;28;20475;-74
2024/03/13 00:54:04;;;;;;;34.45;15.43;;;;;;;5.31;100.00;100672.47;5122970;28;20118;-73
2024/03/13 00:56:34;;;;;;;36.58;15.38;;;;;;;5.23;100.00;100671.69;5122342;28;20023;-73
2024/03/13 00:59:05;;;;;;;36.70;16.00;;;;;;;5.23;100.00;100674.28;5122406;28;20020;-74
2024/03/13 01:01:37;;;;;;;39.28;15.90;;;;;;;5.29;100.00;100675.06;5126222;28;20089;-72
2024/03/13 01:04:08;;;;;;;33.90;15.52;;;;;;;5.27;100.00;100676.81;5125791;28;20086;-73
2024/03/13 01:06:38;;;;;;;34.50;15.88;;;;;;;5.28;100.00;100680.25;5123901;28;20023;-73
2024/03/13 01:09:11;;;;;;;35.25;16.00;;;;;;;5.27;100.00;100679.41;5125397;28;20023;-73
2024/03/13 01:11:41;;;;;;;39.60;16.55;;;;;;;5.23;100.00;100677.75;5119707;28;20023;-73
2024/03/13 01:14:13;;;;;;;30.63;14.93;;;;;;;5.26;100.00;100672.53;5125255;28;20093;-72
2024/03/13 01:16:44;;;;;;;35.63;15.85;;;;;;;5.36;100.00;100676.69;5124926;28;20118;-74
2024/03/13 01:19:14;;;;;;;34.95;15.13;;;;;;;5.42;100.00;100676.63;5120846;28;20086;-73
2024/03/13 01:21:48;;;;;;;34.13;15.00;;;;;;;5.27;100.00;100678.53;5120822;28;20026;-74
2024/03/13 01:24:20;;;;;;;27.73;13.23;;;;;;;5.32;100.00;100679.38;5120340;28;20118;-73
2024/03/13 01:26:52;;;;;;;29.48;14.50;;;;;;;5.24;100.00;100676.88;5123565;28;20033;-71
2024/03/13 01:29:22;;;;;;;28.05;13.35;;;;;;;5.28;100.00;100673.34;5121267;28;20031;-74
2024/03/13 01:31:56;;;;;;;25.65;12.52;;;;;;;5.15;100.00;100676.13;5121078;28;20031;-73
2024/03/13 01:34:27;;;;;;;25.20;12.77;;;;;;;5.00;100.00;100676.31;5123502;28;20254;-73
2024/03/13 01:39:47;;;;;;;26.90;12.55;;;;;;;4.88;100.00;100687.66;5121828;28;20034;-74
2024/03/13 01:56:30;;;;;;;31.48;13.77;;;;;;;4.94;100.00;100682.41;5124283;28;20228;-73
2024/03/13 01:59:09;;;;;;;32.13;14.02;;;;;;;4.88;100.00;100685.06;5123943;28;20019;-73
2024/03/13 02:04:28;;;;;;;29.58;13.20;;;;;;;4.85;100.00;100676.47;5125639;28;20037;-73
2024/03/13 02:06:59;;;;;;;33.75;14.25;;;;;;;4.88;100.00;100676.44;5120418;28;20031;-74
2024/03/13 02:09:29;;;;;;;31.35;14.02;;;;;;;4.87;100.00;100670.41;5115837;28;20035;-74
2024/03/13 02:12:00;;;;;;;34.45;14.02;;;;;;;4.88;100.00;100673.84;5118009;28;20365;-73
2024/03/13 02:14:30;;;;;;;31.90;14.55;;;;;;;4.93;100.00;100675.50;5121406;28;20035;-74
2024/03/13 02:17:00;;;;;;;34.22;14.13;;;;;;;4.95;100.00;100660.81;5118113;28;20403;-73
2024/03/13 02:19:31;;;;;;;30.50;14.07;;;;;;;4.92;100.00;100667.75;5118247;28;20334;-73
2024/03/13 02:22:04;;;;;;;33.28;14.73;;;;;;;4.84;100.00;100664.41;5134871;28;20388;-73
2024/03/13 02:24:34;;;;;;;31.60;13.32;;;;;;;4.80;100.00;100658.41;5117802;28;20518;-73
2024/03/13 02:27:11;;;;;;;27.90;12.35;;;;;;;4.57;100.00;100660.38;5117917;28;20027;-73
2024/03/13 02:29:46;;;;;;;29.42;12.93;;;;;;;4.35;100.00;100664.06;5118754;28;20203;-74
2024/03/13 02:32:16;;;;;;;29.15;12.45;;;;;;;4.36;100.00;100660.59;5119751;28;20038;-74
2024/03/13 02:34:47;;;;;;;31.88;13.90;;;;;;;4.28;100.00;100656.38;5118448;28;20478;-74
2024/03/13 02:37:17;;;;;;;30.35;12.75;;;;;;;4.29;100.00;100651.16;5117256;28;20550;-73
2024/03/13 02:39:47;;;;;;;28.13;13.50;;;;;;;4.13;100.00;100657.34;5116701;28;20030;-74
2024/03/13 02:42:17;;;;;;;30.70;13.23;;;;;;;4.07;100.00;100653.94;5118472;28;20030;-74
2024/03/13 02:44:48;;;;;;;31.45;14.07;;;;;;;4.13;100.00;100649.56;5117412;28;20122;-73
2024/03/13 02:47:18;;;;;;;35.00;13.75;;;;;;;4.17;100.00;100647.84;5117865;28;20491;-74
2024/03/13 02:49:48;;;;;;;32.40;13.93;;;;;;;4.04;100.00;100641.91;5115211;28;20352;-73
2024/03/13 02:52:19;;;;;;;28.10;12.88;;;;;;;4.03;100.00;100642.78;5118128;28;20118;-73
2024/03/13 02:54:51;;;;;;;29.02;13.25;;;;;;;4.13;100.00;100638.41;5119416;28;20274;-74
2024/03/13 02:57:25;;;;;;;29.33;13.43;;;;;;;4.04;100.00;100641.03;5117836;28;20035;-73
2024/03/13 02:59:55;;;;;;;36.95;14.73;;;;;;;4.10;100.00;100636.69;5118097;28;20340;-74
2024/03/13 03:02:26;;;;;;;35.92;14.65;;;;;;;4.16;100.00;100636.63;5118574;28;20034;-73
2024/03/13 03:04:57;;;;;;;31.65;13.80;;;;;;;4.37;100.00;100649.38;5118116;28;20390;-74
2024/03/13 03:07:27;;;;;;;35.25;15.18;;;;;;;4.43;100.00;100626.03;5116379;28;20027;-73
2024/03/13 03:09:59;;;;;;;34.17;14.55;;;;;;;4.42;100.00;100628.63;5117400;28;20211;-73
2024/03/13 03:12:29;;;;;;;37.70;14.57;;;;;;;4.46;100.00;100631.16;5118650;28;20030;-73
2024/03/13 03:15:00;;;;;;;33.25;14.70;;;;;;;4.41;100.00;100627.78;5118862;28;20027;-74
2024/03/13 03:17:31;;;;;;;36.65;15.30;;;;;;;4.46;100.00;100625.97;5116315;28;20386;-73
2024/03/13 03:20:01;;;;;;;30.50;14.18;;;;;;;4.49;100.00;100628.53;5121451;28;20035;-74
2024/03/13 03:22:32;;;;;;;34.78;15.23;;;;;;;4.47;100.00;100624.28;5116881;28;20023;-74
2024/03/13 03:25:02;;;;;;;37.80;14.63;;;;;;;4.41;100.00;100620.00;5117349;28;20027;-74
2024/03/13 03:27:33;;;;;;;33.58;14.52;;;;;;;4.41;100.00;100622.59;5115988;28;20042;-74
2024/03/13 03:30:04;;;;;;;36.53;14.90;;;;;;;4.43;100.00;100628.59;5120935;28;20031;-73
2024/03/13 03:32:35;;;;;;;35.45;14.85;;;;;;;4.48;100.00;100624.22;5118676;28;20051;-75
2024/03/13 03:35:06;;;;;;;39.80;15.48;;;;;;;4.54;100.00;100628.50;5117704;28;20596;-73
2024/03/13 03:37:38;;;;;;;38.78;15.38;;;;;;;4.55;100.00;100641.44;5115454;28;20090;-74
2024/03/13 03:40:13;;;;;;;37.45;15.18;;;;;;;4.57;100.00;100629.31;5123333;28;20034;-73
2024/03/13 03:42:43;;;;;;;35.05;15.90;;;;;;;4.59;100.00;100637.06;5116452;28;20023;-73
2024/03/13 03:45:13;;;;;;;32.67;14.63;;;;;;;4.76;100.00;100638.59;5117748;28;20031;-74
2024/03/13 03:47:44;;;;;;;37.90;15.65;;;;;;;4.65;100.00;100637.00;5114062;28;20439;-73
2024/03/13 03:50:15;;;;;;;33.50;14.30;;;;;;;4.69;100.00;100633.50;5116488;28;20030;-74
2024/03/13 03:52:48;;;;;;;34.95;14.88;;;;;;;4.71;100.00;100630.03;5115618;28;20345;-74
2024/03/13 03:55:19;;;;;;;34.55;14.80;;;;;;;4.62;100.00;100627.53;5117492;28;20114;-74
2024/03/13 03:57:49;;;;;;;33.20;14.32;;;;;;;4.60;100.00;100618.94;5114527;28;20031;-74
2024/03/13 04:00:22;;;;;;;31.33;13.93;;;;;;;4.77;100.00;100619.59;5119740;28;20184;-72
2024/03/13 04:02:52;;;;;;;32.33;14.18;;;;;;;4.64;100.00;100617.19;5116513;28;20031;-74
2024/03/13 04:05:26;;;;;;;33.10;14.18;;;;;;;4.41;100.00;100622.59;5116051;28;20022;-74
2024/03/13 04:07:56;;;;;;;29.63;13.52;;;;;;;4.40;100.00;100626.06;5113806;28;20033;-73
2024/03/13 04:10:26;;;;;;;31.25;13.45;;;;;;;4.25;100.00;100630.50;5116729;28;20471;-74
2024/03/13 04:12:57;;;;;;;33.25;14.43;;;;;;;4.32;100.00;100622.69;5118552;28;20676;-73
2024/03/13 04:15:28;;;;;;;32.65;13.80;;;;;;;4.42;100.00;100626.91;5123829;28;20155;-74
2024/03/13 04:17:59;;;;;;;34.30;14.65;;;;;;;4.34;100.00;100633.91;5119250;28;20483;-73
2024/03/13 04:20:29;;;;;;;30.92;13.88;;;;;;;4.44;100.00;100627.72;5119013;28;20051;-73
2024/03/13 04:22:59;;;;;;;33.83;14.13;;;;;;;4.30;100.00;100616.66;5118695;28;20035;-73
2024/03/13 04:25:32;;;;;;;31.33;13.57;;;;;;;4.27;100.00;100626.22;5120907;28;20275;-72
2024/03/13 04:28:03;;;;;;;32.50;14.20;;;;;;;4.36;100.00;100629.56;5118657;28;20027;-73
2024/03/13 04:30:33;;;;;;;35.03;13.80;;;;;;;4.18;100.00;100619.38;5118468;28;20034;-74
2024/03/13 04:33:04;;;;;;;34.75;14.00;;;;;;;4.21;100.00;100610.72;5119431;28;20059;-73
2024/03/13 04:35:34;;;;;;;37.17;15.85;;;;;;;4.11;100.00;100612.53;5115457;28;20421;-73
2024/03/13 04:38:05;;;;;;;35.50;15.23;;;;;;;3.98;100.00;100605.75;5117889;28;20043;-73
2024/03/13 04:40:39;;;;;;;36.08;15.10;;;;;;;3.96;100.00;100611.81;5118339;28;20078;-73
2024/03/13 04:43:09;;;;;;;36.88;15.80;;;;;;;3.92;100.00;100615.31;5119493;28;20154;-73
2024/03/13 04:45:40;;;;;;;36.88;15.80;;;;;;;3.86;100.00;100616.22;5117977;28;20118;-73
2024/03/13 04:48:10;;;;;;;39.70;15.55;;;;;;;3.94;100.00;100616.16;5118831;28;20027;-74
2024/03/13 04:50:41;;;;;;;38.25;16.52;;;;;;;4.04;100.00;100623.81;5117931;28;20047;-73
2024/03/13 04:53:11;;;;;;;42.38;16.65;;;;;;;4.07;100.00;100617.75;5118915;28;20015;-74
2024/03/13 04:55:41;;;;;;;47.22;18.80;;;;;;;4.18;100.00;100619.38;5118837;28;20027;-74
2024/03/13 04:58:12;;;;;;;47.72;16.77;;;;;;;4.24;100.00;100614.16;5119386;28;20050;-74
2024/03/13 05:00:42;;;;;;;38.30;16.15;;;;;;;4.48;100.00;100626.81;5121551;28;20031;-71
2024/03/13 05:03:14;;;;;;;37.80;16.05;;;;;;;4.39;100.00;100628.66;5119960;28;20634;-74
2024/03/13 05:05:46;;;;;;;34.65;15.00;;;;;;;4.40;100.00;100628.66;5120638;28;20027;-74
2024/03/13 05:08:16;;;;;;;37.60;16.13;;;;;;;4.23;100.00;100638.28;5117301;28;20066;-74
2024/03/13 05:10:47;;;;;;;40.05;15.85;;;;;;;4.24;100.00;100636.56;5121842;28;20027;-72
2024/03/13 05:13:17;;;;;;;37.28;15.70;;;;;;;4.25;100.00;100640.84;5136982;28;20491;-74
2024/03/13 05:15:48;;;;;;;37.13;15.98;;;;;;;4.35;100.00;100640.78;5117906;28;20062;-73
2024/03/13 05:18:19;;;;;;;40.20;16.23;;;;;;;4.30;100.00;100646.88;5117696;28;20026;-73
2024/03/13 05:20:49;;;;;;;41.40;16.38;;;;;;;4.34;100.00;100657.16;5120132;28;20058;-73
2024/03/13 05:23:20;;;;;;;40.42;15.80;;;;;;;4.46;100.00;100651.03;5125855;28;20106;-73
2024/03/13 05:25:52;;;;;;;39.38;15.82;;;;;;;4.41;100.00;100661.41;5121173;28;20436;-74
2024/03/13 05:28:22;;;;;;;37.50;15.75;;;;;;;4.27;100.00;100660.66;5119702;28;20033;-74
2024/03/13 05:30:53;;;;;;;40.42;16.40;;;;;;;4.35;100.00;100663.19;5120472;28;20035;-74
2024/03/13 05:33:23;;;;;;;34.42;15.25;;;;;;;4.34;100.00;100664.94;5134350;28;20041;-74
2024/03/13 05:35:53;;;;;;;34.97;14.93;;;;;;;4.30;100.00;100668.41;5121067;28;20043;-74
2024/03/13 05:38:23;;;;;;;42.17;15.07;;;;;;;4.28;100.00;100670.13;5116878;28;20150;-73
2024/03/13 05:40:54;;;;;;;36.53;15.40;;;;;;;4.28;100.00;100671.88;5123100;28;20605;-74
2024/03/13 05:43:24;;;;;;;36.92;15.82;;;;;;;4.20;100.00;100682.28;5138153;28;20126;-73
2024/03/13 05:45:54;;;;;;;39.45;14.75;;;;;;;4.31;100.00;100680.44;5120521;28;20058;-74
2024/03/13 05:48:24;;;;;;;38.97;16.42;;;;;;;4.30;100.00;100691.66;5123330;28;20491;-73
2024/03/13 05:50:55;;;;;;;45.17;16.60;;;;;;;4.42;100.00;100676.06;5119636;28;20027;-73
2024/03/13 05:53:26;;;;;;;38.85;16.20;;;;;;;4.67;100.00;100687.88;5124705;28;20150;-73
2024/03/13 05:55:56;;;;;;;38.08;15.30;;;;;;;4.67;100.00;100677.50;5118058;28;20051;-73
2024/03/13 05:58:26;;;;;;;37.15;15.13;;;;;;;4.49;100.00;100692.38;5119497;28;20631;-73
2024/03/13 06:00:57;;;;;;;35.30;15.27;;;;;;;4.45;100.00;100690.69;5117663;28;20151;-74
2024/03/13 06:03:29;;;;;;;35.65;15.43;;;;;;;4.45;100.00;100694.13;5118201;28;20093;-74
2024/03/13 06:06:00;;;;;;;35.90;15.07;;;;;;;4.35;100.00;100699.41;5124010;28;20074;-73
2024/03/13 06:08:31;;;;;;;36.15;15.70;;;;;;;4.34;100.00;100701.16;5119178;28;20695;-73
2024/03/13 06:11:05;;;;;;;35.38;14.77;;;;;;;4.27;100.00;100699.47;5119198;28;20447;-73
2024/03/13 06:13:36;;;;;;;39.08;15.80;;;;;;;4.60;100.00;100695.72;5123389;28;20122;-73
2024/03/13 06:16:07;;;;;;;33.67;14.23;;;;;;;4.58;100.00;100690.56;5122508;28;20420;-72
2024/03/13 06:18:38;;;;;;;33.40;14.57;;;;;;;4.71;100.00;100693.88;5119054;28;20047;-73
2024/03/13 06:21:10;;;;;;;32.47;15.63;;;;;;;4.79;100.00;100684.31;5117360;28;20058;-73
2024/03/13 06:23:47;;;;;;;37.38;14.93;;;;;;;4.90;100.00;100685.03;5116347;28;20066;-72
2024/03/13 06:26:18;;;;;;;33.22;14.38;;;;;;;4.79;100.00;100682.56;5120731;28;20118;-73
2024/03/13 06:31:41;;;;;;;30.55;14.13;;;;;;;4.76;100.00;100672.25;5116363;28;20131;-73
2024/03/13 06:34:11;;;;;;;34.03;15.18;;;;;;;4.91;100.00;100676.41;5118456;28;20023;-72
2024/03/13 06:36:42;;;;;;;35.80;15.48;;;;;;;4.89;100.00;100675.56;5114821;28;20418;-71
2024/03/13 06:39:12;;;;;;;33.60;14.45;;;;;;;5.20;100.00;100677.78;5117435;28;20027;-73
2024/03/13 06:41:42;;;;;;;37.00;15.70;;;;;;;4.95;100.00;100670.34;5120554;28;20130;-72
2024/03/13 06:44:13;;;;;;;36.75;15.18;;;;;;;5.20;100.00;100666.56;5117631;28;20033;-73
2024/03/13 06:46:43;;;;;;;34.75;15.23;;;;;;;5.36;100.00;100661.13;5118759;28;20034;-72
2024/03/13 06:49:15;;;;;;;36.30;15.50;;;;;;;5.54;100.00;100655.75;5115682;28;20097;-73
2024/03/13 06:51:45;;;;;;;35.28;14.50;;;;;;;5.61;100.00;100646.97;5115867;28;20035;-73
2024/03/13 06:54:17;;;;;;;33.92;14.95;;;;;;;5.68;100.00;100646.88;5116947;28;20032;-74
2024/03/13 06:56:47;;;;;;;38.58;15.43;;;;;;;5.73;100.00;100647.66;5107477;28;20285;-73
2024/03/13 06:59:19;;;;;;;33.80;14.68;;;;;;;5.72;100.00;100647.69;5144939;23;20066;-74
2024/03/13 07:01:52;;;;;;;34.95;15.85;;;;;;;5.80;100.00;100651.91;5127382;28;20041;-74
2024/03/13 07:04:22;;;;;;;33.75;15.30;;;;;;;6.19;100.00;100642.63;5137555;28;20026;-74
2024/03/13 07:06:57;;;;;;;36.70;16.08;;;;;;;6.21;100.00;100640.84;5131323;28;20054;-74
2024/03/13 07:09:28;;;;;;;37.63;16.17;;;;;;;6.33;100.00;100638.94;5141820;28;20109;-74
2024/03/13 07:11:58;;;;;;;39.15;16.50;;;;;;;6.62;100.00;100643.59;5136348;28;20033;-73
2024/03/13 07:14:29;;;;;;;39.40;16.92;;;;;;;6.49;100.00;100639.50;5147363;28;20026;-74
2024/03/13 07:16:59;;;;;;;41.20;16.45;;;;;;;6.59;100.00;100638.47;5139738;28;20030;-74
2024/03/13 07:19:31;;;;;;;38.40;15.85;;;;;;;6.92;100.00;100633.47;5144997;28;20035;-73
2024/03/13 07:22:01;;;;;;;36.35;16.38;;;;;;;7.16;100.00;100634.69;5139658;28;20422;-74
2024/03/13 07:24:33;;;;;;;36.47;15.95;;;;;;;7.21;100.00;100638.94;5142359;28;20026;-73
2024/03/13 07:27:04;;;;;;;37.90;17.05;;;;;;;7.48;100.00;100639.19;5141988;28;20113;-74
2024/03/13 07:29:35;;;;;;;35.75;16.55;;;;;;;7.65;100.00;100629.25;5147653;28;20026;-74
2024/03/13 07:32:05;;;;;;;34.08;16.70;;;;;;;8.70;100.00;100626.59;5143940;28;20035;-74
2024/03/13 07:34:35;;;;;;;34.28;15.93;;;;;;;10.81;97.59;100616.38;5145226;28;20234;-74
2024/03/13 07:37:06;;;;;;;29.20;13.77;;;;;;;12.52;84.21;100619.13;5144711;28;20073;-75
2024/03/13 07:39:36;;;;;;;25.58;13.88;;;;;;;14.11;80.11;100616.94;5145763;28;20736;-74
2024/03/13 07:42:06;;;;;;;25.25;13.07;;;;;;;15.56;73.52;100615.34;5136280;28;20027;-75
2024/03/13 07:44:37;;;;;;;25.23;13.35;;;;;;;15.32;68.04;100621.97;5142927;28;20062;-75
2024/03/13 07:47:08;;;;;;;23.35;12.93;;;;;;;16.25;64.95;100621.91;5140748;28;20405;-76
2024/03/13 07:49:40;;;;;;;24.17;13.20;;;;;;;15.79;70.19;100624.63;5140693;28;20077;-74
2024/03/13 07:52:12;;;;;;;21.95;12.20;;;;;;;16.31;66.73;100632.13;5142625;28;20514;-75
2024/03/13 07:54:42;;;;;;;21.05;12.30;;;;;;;16.90;65.54;100632.09;5144605;28;20029;-75
2024/03/13 07:57:13;;;;;;;21.25;12.48;;;;;;;17.84;64.29;100639.34;5141248;28;20428;-74
2024/03/13 07:59:45;;;;;;;20.25;12.65;;;;;;;16.85;63.74;100636.81;5146779;28;20023;-74
2024/03/13 08:02:16;;;;;;;19.75;11.55;;;;;;;17.95;62.33;100636.00;5144586;28;20022;-74
2024/03/13 08:04:46;;;;;;;21.20;12.00;;;;;;;18.61;60.24;100621.84;5146714;28;20037;-74
2024/03/13 08:07:17;;;;;;;19.63;11.13;;;;;;;18.00;60.00;100633.91;5142717;28;20030;-74
2024/03/13 08:09:47;;;;;;;18.90;11.65;;;;;;;18.39;60.83;100631.31;5141825;28;20038;-74
2024/03/13 08:12:18;;;;;;;18.17;10.70;;;;;;;18.42;60.95;100633.75;5142670;28;20585;-75
2024/03/13 08:14:48;;;;;;;18.58;11.15;;;;;;;19.25;61.06;100622.63;5141497;28;20023;-74
2024/03/13 08:17:18;;;;;;;22.05;11.98;;;;;;;18.20;60.04;100636.09;5145654;28;20042;-74
2024/03/13 08:19:49;;;;;;;19.67;10.48;;;;;;;18.73;60.59;100628.09;5147120;28;20452;-74
2024/03/13 08:22:19;;;;;;;18.73;10.98;;;;;;;18.55;59.76;100632.84;5139246;28;20038;-74
2024/03/13 08:24:50;;;;;;;16.83;10.80;;;;;;;19.39;59.10;100637.56;5143361;28;20474;-75
2024/03/13 08:27:21;;;;;;;18.20;10.45;;;;;;;19.90;56.77;100634.69;5142420;28;20360;-75
2024/03/13 08:29:53;;;;;;;17.20;10.85;;;;;;;20.38;55.81;100636.41;5141910;28;20035;-74
2024/03/13 08:32:23;;;;;;;22.52;11.57;;;;;;;20.24;57.31;100628.63;5146744;28;20138;-74
2024/03/13 08:34:54;;;;;;;17.83;10.82;;;;;;;20.88;56.08;100630.81;5139875;28;20125;-74
2024/03/13 08:37:26;;;;;;;17.02;10.30;;;;;;;20.41;57.72;100636.19;5141588;28;20039;-75
2024/03/13 08:40:00;;;;;;;17.95;10.75;;;;;;;19.90;57.94;100634.69;5142048;28;20035;-75
2024/03/13 08:42:30;;;;;;;19.85;11.02;;;;;;;20.27;56.66;100631.03;5140864;28;20234;-74
2024/03/13 08:45:01;;;;;;;15.93;9.17;;;;;;;20.74;56.89;100623.84;5142344;28;20117;-75
2024/03/13 08:47:32;;;;;;;16.17;9.82;;;;;;;20.20;57.84;100632.47;5141238;28;20675;-75
2024/03/13 08:50:03;;;;;;;15.47;8.90;;;;;;;21.27;55.94;100619.72;5139270;28;20072;-74
2024/03/13 08:52:36;;;;;;;17.15;9.90;;;;;;;21.30;56.26;100630.09;5139367;28;20785;-74
2024/03/13 08:55:08;;;;;;;16.90;9.52;;;;;;;20.35;57.61;100628.69;5141195;28;20109;-74
2024/03/13 08:57:38;;;;;;;13.90;8.90;;;;;;;20.23;57.34;100620.75;5143164;28;20085;-74
2024/03/13 09:00:10;;;;;;;12.73;8.02;;;;;;;20.67;55.64;100622.63;5140441;28;20034;-74
2024/03/13 09:02:40;;;;;;;16.15;10.30;;;;;;;19.62;59.85;100621.72;5142569;28;20113;-74
2024/03/13 09:05:10;;;;;;;16.17;9.05;;;;;;;19.13;59.38;100626.09;5144578;28;20552;-75
2024/03/13 09:07:41;;;;;;;17.17;9.40;;;;;;;19.44;58.88;100632.78;5144726;28;20026;-74
2024/03/13 09:10:12;;;;;;;14.93;8.45;;;;;;;19.55;59.23;100625.75;5137098;28;20074;-75
2024/03/13 09:12:43;;;;;;;13.90;7.60;;;;;;;19.30;59.32;100628.44;5141752;28;20077;-74
2024/03/13 09:15:16;;;;;;;10.70;6.70;;;;;;;19.83;58.59;100628.13;5139498;28;20430;-74
2024/03/13 09:17:47;;;;;;;10.10;6.43;;;;;;;19.61;57.75;100625.31;5137675;28;20294;-73
2024/03/13 09:20:18;;;;;;;11.57;6.70;;;;;;;19.09;60.48;100643.16;5139867;28;20050;-74
2024/03/13 09:22:48;;;;;;;10.60;6.18;;;;;;;18.61;62.41;100648.31;5141530;28;20097;-74
2024/03/13 09:25:18;;;;;;;11.55;6.95;;;;;;;17.54;63.42;100651.00;5138941;28;20697;-74
2024/03/13 09:27:49;;;;;;;10.48;6.65;;;;;;;17.45;65.10;100638.38;5138562;28;20026;-74
2024/03/13 09:30:19;;;;;;;12.52;6.95;;;;;;;16.75;65.49;100627.75;5141747;28;20070;-74
2024/03/13 09:32:50;;;;;;;9.90;5.30;;;;;;;16.60;66.12;100633.09;5140594;28;20122;-74
2024/03/13 09:35:20;;;;;;;6.93;3.53;;;;;;;15.87;66.32;100630.34;5140525;28;20377;-74
2024/03/13 09:37:50;;;;;;;6.28;3.00;;;;;;;16.01;67.56;100619.88;5144525;28;20037;-73
2024/03/13 09:40:21;;;;;;;4.65;2.67;;;;;;;15.81;67.79;100628.03;5136448;28;20038;-74
2024/03/13 09:42:54;;;;;;;4.70;2.63;;;;;;;15.36;67.01;100628.78;5137649;28;20069;-74
2024/03/13 09:45:26;;;;;;;5.93;3.05;;;;;;;15.11;67.98;100627.50;5139442;28;20030;-73
2024/03/13 09:47:57;;;;;;;5.75;3.28;;;;;;;15.25;67.20;100622.34;5136943;28;20034;-73
2024/03/13 09:50:28;;;;;;;7.75;3.40;;;;;;;15.30;69.39;100621.22;5139834;28;20413;-74
2024/03/13 09:53:00;;;;;;;5.18;3.00;;;;;;;15.63;69.30;100618.50;5141099;28;20522;-74
2024/03/13 09:55:30;;;;;;;5.15;2.65;;;;;;;15.62;67.90;100622.94;5142880;28;20423;-73
2024/03/13 09:58:02;;;;;;;4.25;2.45;;;;;;;15.61;67.83;100623.88;5139727;28;20035;-73
2024/03/13 10:00:33;;;;;;;4.30;2.30;;;;;;;16.02;68.14;100622.41;5137484;28;20031;-74
2024/03/13 10:03:17;;;;;;;3.97;2.35;;;;;;;15.72;66.80;100621.47;5136944;28;20038;-73
2024/03/13 10:05:51;;;;;;;4.55;2.30;;;;;;;15.64;67.48;100615.78;5140568;28;20031;-73
2024/03/13 10:08:23;;;;;;;4.10;2.38;;;;;;;15.76;67.49;100620.41;5138502;28;20037;-73
2024/03/13 10:11:00;;;;;;;3.80;1.90;;;;;;;15.91;67.95;100622.13;5135633;28;20597;-73
2024/03/13 10:13:33;;;;;;;3.80;1.98;;;;;;;15.82;67.18;100625.31;5140188;28;20156;-74
2024/03/13 10:16:06;;;;;;;5.22;2.30;;;;;;;15.52;66.67;100639.34;5136570;28;20027;-74
2024/03/13 10:18:47;;;;;;;3.80;2.28;;;;;;;15.38;68.40;100631.34;5145476;28;20026;-74
2024/03/13 10:21:26;;;;;;;4.05;2.30;;;;;;;15.34;68.90;100643.81;5138043;28;20039;-74
2024/03/13 10:23:58;;;;;;;4.30;2.40;;;;;;;15.56;69.23;100631.16;5137845;28;20058;-73
2024/03/13 10:26:29;;;;;;;3.95;2.10;;;;;;;15.52;68.96;100634.06;5142226;28;20033;-74
2024/03/13 10:29:00;;;;;;;3.00;1.90;;;;;;;15.56;69.95;100636.44;5135901;28;20031;-74
2024/03/13 10:31:32;;;;;;;3.72;2.08;;;;;;;15.69;68.64;100634.81;5137072;28;20372;-74
2024/03/13 10:34:02;;;;;;;3.05;1.83;;;;;;;15.99;69.21;100634.88;5139972;28;20038;-74
2024/03/13 10:36:33;;;;;;;2.35;1.40;;;;;;;16.41;68.80;100633.31;5135380;28;20038;-74
2024/03/13 10:39:08;;;;;;;2.55;1.58;;;;;;;16.09;68.83;100629.03;5137265;28;20124;-73
2024/03/13 10:41:44;;;;;;;3.50;2.03;;;;;;;15.55;69.03;100640.00;5137174;28;20045;-74
2024/03/13 10:44:14;;;;;;;3.15;1.40;;;;;;;15.56;70.19;100636.44;5136367;28;20106;-74
2024/03/13 10:46:45;;;;;;;3.05;1.80;;;;;;;15.50;70.29;100631.50;5141276;28;20113;-74
2024/03/13 10:49:17;;;;;;;2.97;1.70;;;;;;;15.54;70.08;100625.13;5140413;28;21216;-74
2024/03/13 10:51:47;;;;;;;3.30;1.60;;;;;;;15.73;70.45;100628.44;5144032;28;20635;-74
2024/03/13 10:54:17;;;;;;;2.40;1.48;;;;;;;15.68;70.87;100621.75;5140380;28;20109;-73
2024/03/13 10:56:53;;;;;;;3.63;1.88;;;;;;;15.69;70.70;100621.66;5135746;28;20034;-73
2024/03/13 10:59:24;;;;;;;3.03;1.98;;;;;;;15.76;71.41;100627.44;5139986;28;20023;-74
2024/03/13 11:01:55;;;;;;;3.25;1.65;;;;;;;16.02;70.95;100625.03;5139190;28;20085;-74
2024/03/13 11:04:26;;;;;;;3.17;1.90;;;;;;;16.08;70.07;100618.56;5137729;28;20026;-74
2024/03/13 11:06:56;;;;;;;2.55;1.77;;;;;;;15.56;69.89;100623.25;5134374;28;20030;-73
2024/03/13 11:09:28;;;;;;;3.67;2.13;;;;;;;15.60;69.59;100624.81;5135598;28;20506;-74
2024/03/13 11:12:00;;;;;;;4.55;2.35;;;;;;;15.48;70.29;100621.97;5137846;28;20027;-74
2024/03/13 11:14:31;;;;;;;3.33;2.10;;;;;;;15.44;69.64;100621.31;5144008;28;20689;-76
2024/03/13 11:17:05;;;;;;;4.43;2.20;;;;;;;15.15;70.56;100629.91;5137021;28;20037;-73
2024/03/13 11:19:37;;;;;;;4.20;2.50;;;;;;;14.98;72.05;100632.56;5143224;28;20030;-74
2024/03/13 11:22:08;;;;;;;4.97;2.25;;;;;;;14.83;73.11;100628.09;5140338;28;20033;-74
2024/03/13 11:24:40;;;;;;;4.25;2.60;;;;;;;14.85;72.39;100625.41;5138333;28;20402;-73
2024/03/13 11:27:16;;;;;;;4.45;2.60;;;;;;;14.91;73.61;100619.81;5135677;28;20514;-73
2024/03/13 11:29:49;;;;;;;4.30;2.40;;;;;;;14.88;72.75;100620.81;5137686;28;20034;-73
2024/03/13 11:32:21;;;;;;;7.47;2.50;;;;;;;14.76;72.50;100617.13;5136911;28;20088;-73
2024/03/13 11:34:51;;;;;;;5.97;2.60;;;;;;;14.51;73.66;100627.19;5137732;28;20049;-74
2024/03/13 11:37:23;;;;;;;3.63;2.17;;;;;;;14.63;74.28;100614.25;5134672;28;20030;-73
2024/03/13 11:39:55;;;;;;;7.18;3.35;;;;;;;14.65;73.68;100608.94;5139552;28;20292;-73
2024/03/13 11:42:31;;;;;;;6.35;2.83;;;;;;;14.54;73.68;100601.59;5137830;28;20058;-74
2024/03/13 11:45:19;;;;;;;6.10;2.85;;;;;;;14.60;73.48;100601.28;5138654;28;20026;-73
2024/03/13 11:47:50;;;;;;;5.18;2.85;;;;;;;14.71;73.20;100592.81;5133003;28;20117;-73
2024/03/13 11:50:21;;;;;;;5.20;2.83;;;;;;;14.62;73.55;100596.78;5134427;28;20034;-73
2024/03/13 11:52:56;;;;;;;7.20;2.90;;;;;;;15.03;74.31;100598.94;5135897;28;20517;-73